Bad River Indian Reservation, Wisconsin
Current Conditions -  °F | °C
As of 6:53 AM on Wednesday 22 Oct 2014 (Local Time) from KASX Reporting Station
Clear Clear  
Wind Chill: -2°   Ceiling: Unl
Heat Index: -2°   Visibility: 10mi
Dew Point: -3°   Wind: 3mph
Humidity: 96%   Direction: 150°SSE
Pressure: 30.27"   Gusts: NA
Location:  46.543°N, 90.8706°W
Report Text: KASX 221153Z AUTO 15003KT 10SM CLR M02/M03 A3027 RMK AO2 SLP263 I6001 T10221028 11006 21033 51009
Loading
Personal Weather Stations






























Interactive Weather Map
Tropical Storm Tracking
New forecast layout! Learn more

10-Day Weather Forecast

Advertisements
Track Severe Weather on mobile